sensor_id;sensor_type;location;lat;lon;timestamp;pressure;altitude;pressure_sealevel;temperature;humidity
82951;BME280;72737;53.332;6.514;2024-03-02T00:01:09;99958.88;;;14.13;58.40
82951;BME280;72737;53.332;6.514;2024-03-02T00:03:36;99963.81;;;14.11;57.88
82951;BME280;72737;53.332;6.514;2024-03-02T00:06:02;99953.22;;;14.09;57.76
82951;BME280;72737;53.332;6.514;2024-03-02T00:08:29;99959.47;;;14.10;57.86
82951;BME280;72737;53.332;6.514;2024-03-02T00:10:59;99958.38;;;14.11;58.26
82951;BME280;72737;53.332;6.514;2024-03-02T00:13:27;99958.66;;;14.09;57.94
82951;BME280;72737;53.332;6.514;2024-03-02T00:15:56;99961.09;;;14.11;58.02
82951;BME280;72737;53.332;6.514;2024-03-02T00:18:32;99952.47;;;14.17;58.11
82951;BME280;72737;53.332;6.514;2024-03-02T00:20:58;99952.94;;;14.19;57.56
82951;BME280;72737;53.332;6.514;2024-03-02T00:23:28;99960.47;;;14.14;57.67
82951;BME280;72737;53.332;6.514;2024-03-02T00:25:55;99949.19;;;14.07;57.86
82951;BME280;72737;53.332;6.514;2024-03-02T00:28:34;99954.16;;;14.05;58.38
82951;BME280;72737;53.332;6.514;2024-03-02T00:33:37;99942.47;;;14.13;58.32
82951;BME280;72737;53.332;6.514;2024-03-02T00:36:03;99947.13;;;14.12;58.25
82951;BME280;72737;53.332;6.514;2024-03-02T00:38:32;99940.56;;;14.22;57.76
82951;BME280;72737;53.332;6.514;2024-03-02T00:41:05;99947.31;;;14.16;57.78
82951;BME280;72737;53.332;6.514;2024-03-02T00:43:44;99948.09;;;14.16;57.94
82951;BME280;72737;53.332;6.514;2024-03-02T00:46:18;99941.97;;;14.11;58.34
82951;BME280;72737;53.332;6.514;2024-03-02T00:48:56;99941.31;;;14.05;58.35
82951;BME280;72737;53.332;6.514;2024-03-02T00:51:27;99944.97;;;14.01;58.44
82951;BME280;72737;53.332;6.514;2024-03-02T00:53:55;99945.66;;;14.06;58.17
82951;BME280;72737;53.332;6.514;2024-03-02T00:56:22;99946.25;;;14.03;58.40
82951;BME280;72737;53.332;6.514;2024-03-02T00:58:49;99948.38;;;14.06;58.31
82951;BME280;72737;53.332;6.514;2024-03-02T01:01:14;99946.31;;;14.12;57.55
82951;BME280;72737;53.332;6.514;2024-03-02T01:03:41;99950.16;;;14.11;57.55
82951;BME280;72737;53.332;6.514;2024-03-02T01:06:13;99930.75;;;14.12;57.69
82951;BME280;72737;53.332;6.514;2024-03-02T01:08:39;99943.59;;;14.12;58.20
82951;BME280;72737;53.332;6.514;2024-03-02T01:11:05;99944.56;;;14.16;57.61
82951;BME280;72737;53.332;6.514;2024-03-02T01:13:31;99950.81;;;14.08;57.79
82951;BME280;72737;53.332;6.514;2024-03-02T01:15:57;99929.09;;;14.03;58.11
82951;BME280;72737;53.332;6.514;2024-03-02T01:18:26;99926.16;;;13.99;58.58
82951;BME280;72737;53.332;6.514;2024-03-02T01:20:52;99915.09;;;14.04;57.72
82951;BME280;72737;53.332;6.514;2024-03-02T01:23:27;99912.19;;;14.01;58.50
82951;BME280;72737;53.332;6.514;2024-03-02T01:25:52;99915.44;;;14.03;58.37
82951;BME280;72737;53.332;6.514;2024-03-02T01:28:18;99904.81;;;14.01;57.80
82951;BME280;72737;53.332;6.514;2024-03-02T01:30:45;99899.81;;;14.03;58.44
82951;BME280;72737;53.332;6.514;2024-03-02T01:33:11;99890.19;;;13.97;57.83
82951;BME280;72737;53.332;6.514;2024-03-02T01:35:36;99894.63;;;13.93;58.27
82951;BME280;72737;53.332;6.514;2024-03-02T01:38:04;99895.09;;;13.87;58.09
82951;BME280;72737;53.332;6.514;2024-03-02T01:40:51;99889.22;;;14.02;58.29
82951;BME280;72737;53.332;6.514;2024-03-02T01:43:18;99894.84;;;13.97;58.09
82951;BME280;72737;53.332;6.514;2024-03-02T01:45:43;99899.22;;;14.06;57.82
82951;BME280;72737;53.332;6.514;2024-03-02T01:48:09;99902.53;;;13.95;58.26
82951;BME280;72737;53.332;6.514;2024-03-02T01:50:35;99896.91;;;13.91;58.65
82951;BME280;72737;53.332;6.514;2024-03-02T01:53:03;99908.81;;;14.04;57.84
82951;BME280;72737;53.332;6.514;2024-03-02T01:55:29;99901.63;;;14.08;57.94
82951;BME280;72737;53.332;6.514;2024-03-02T01:57:56;99908.69;;;14.09;57.45
82951;BME280;72737;53.332;6.514;2024-03-02T02:00:23;99900.47;;;14.00;57.72
82951;BME280;72737;53.332;6.514;2024-03-02T02:02:52;99891.75;;;13.98;58.51
82951;BME280;72737;53.332;6.514;2024-03-02T02:05:17;99894.34;;;13.95;58.61
82951;BME280;72737;53.332;6.514;2024-03-02T02:07:43;99899.19;;;13.98;57.75
82951;BME280;72737;53.332;6.514;2024-03-02T02:10:10;99889.38;;;13.97;58.35
82951;BME280;72737;53.332;6.514;2024-03-02T02:12:36;99892.28;;;14.00;58.39
82951;BME280;72737;53.332;6.514;2024-03-02T02:15:02;99900.47;;;14.00;57.80
82951;BME280;72737;53.332;6.514;2024-03-02T02:17:28;99893.06;;;14.01;57.92
82951;BME280;72737;53.332;6.514;2024-03-02T02:19:53;99887.25;;;13.94;57.80
82951;BME280;72737;53.332;6.514;2024-03-02T02:22:19;99890.47;;;13.96;57.98
82951;BME280;72737;53.332;6.514;2024-03-02T02:24:44;99888.72;;;14.00;57.88
82951;BME280;72737;53.332;6.514;2024-03-02T02:27:10;99886.44;;;13.93;58.31
82951;BME280;72737;53.332;6.514;2024-03-02T02:29:36;99875.84;;;13.92;58.48
82951;BME280;72737;53.332;6.514;2024-03-02T02:32:02;99882.44;;;13.91;58.14
82951;BME280;72737;53.332;6.514;2024-03-02T02:34:28;99881.47;;;13.95;57.84
82951;BME280;72737;53.332;6.514;2024-03-02T02:36:54;99881.03;;;14.02;57.68
82951;BME280;72737;53.332;6.514;2024-03-02T02:39:21;99880.66;;;13.95;58.38
82951;BME280;72737;53.332;6.514;2024-03-02T02:41:47;99880.19;;;13.93;58.05
82951;BME280;72737;53.332;6.514;2024-03-02T02:44:13;99873.78;;;13.97;58.19
82951;BME280;72737;53.332;6.514;2024-03-02T02:46:40;99873.44;;;13.99;58.07
82951;BME280;72737;53.332;6.514;2024-03-02T02:49:08;99871.72;;;14.03;58.18
82951;BME280;72737;53.332;6.514;2024-03-02T02:51:33;99878.16;;;14.07;57.52
82951;BME280;72737;53.332;6.514;2024-03-02T02:53:59;99876.81;;;13.96;57.84
82951;BME280;72737;53.332;6.514;2024-03-02T02:56:25;99880.84;;;13.98;57.71
82951;BME280;72737;53.332;6.514;2024-03-02T02:58:50;99875.84;;;13.92;58.60
82951;BME280;72737;53.332;6.514;2024-03-02T03:01:17;99875.84;;;13.92;58.41
82951;BME280;72737;53.332;6.514;2024-03-02T03:03:45;99880.22;;;14.01;58.01
82951;BME280;72737;53.332;6.514;2024-03-02T03:06:17;99875.22;;;13.95;58.46
82951;BME280;72737;53.332;6.514;2024-03-02T03:08:42;99877.19;;;14.03;57.55
82951;BME280;72737;53.332;6.514;2024-03-02T03:11:08;99874.09;;;13.96;58.35
82951;BME280;72737;53.332;6.514;2024-03-02T03:13:34;99876.19;;;13.99;58.08
82951;BME280;72737;53.332;6.514;2024-03-02T03:15:59;99882.16;;;14.01;57.97
82951;BME280;72737;53.332;6.514;2024-03-02T03:18:25;99878.44;;;13.97;58.29
82951;BME280;72737;53.332;6.514;2024-03-02T03:20:50;99863.66;;;13.98;58.22
82951;BME280;72737;53.332;6.514;2024-03-02T03:23:16;99870.88;;;13.94;57.85
82951;BME280;72737;53.332;6.514;2024-03-02T03:25:43;99871.72;;;14.03;57.75
82951;BME280;72737;53.332;6.514;2024-03-02T03:28:09;99870.09;;;14.02;58.09
82951;BME280;72737;53.332;6.514;2024-03-02T03:30:37;99869.00;;;14.03;57.63
82951;BME280;72737;53.332;6.514;2024-03-02T03:33:02;99875.56;;;14.02;58.35
82951;BME280;72737;53.332;6.514;2024-03-02T03:35:29;99876.38;;;14.02;58.31
82951;BME280;72737;53.332;6.514;2024-03-02T03:37:54;99871.38;;;14.04;58.12
82951;BME280;72737;53.332;6.514;2024-03-02T03:40:20;99863.19;;;14.04;57.47
82951;BME280;72737;53.332;6.514;2024-03-02T03:42:45;99867.31;;;13.93;58.01
82951;BME280;72737;53.332;6.514;2024-03-02T03:45:11;99866.06;;;13.99;57.94
82951;BME280;72737;53.332;6.514;2024-03-02T03:47:36;99866.25;;;14.03;57.92
82951;BME280;72737;53.332;6.514;2024-03-02T03:50:06;99867.84;;;14.04;57.94
82951;BME280;72737;53.332;6.514;2024-03-02T03:52:32;99871.72;;;14.03;57.58
82951;BME280;72737;53.332;6.514;2024-03-02T03:54:58;99861.25;;;13.96;58.24
82951;BME280;72737;53.332;6.514;2024-03-02T03:57:24;99862.06;;;13.97;58.25
82951;BME280;72737;53.332;6.514;2024-03-02T03:59:49;99862.53;;;13.99;58.06
82951;BME280;72737;53.332;6.514;2024-03-02T04:02:15;99856.22;;;13.90;58.01
82951;BME280;72737;53.332;6.514;2024-03-02T04:04:41;99856.06;;;13.86;58.54
82951;BME280;72737;53.332;6.514;2024-03-02T04:07:06;99852.25;;;13.96;58.30
82951;BME280;72737;53.332;6.514;2024-03-02T04:09:32;99849.34;;;13.92;57.87
82951;BME280;72737;53.332;6.514;2024-03-02T04:11:58;99859.63;;;13.95;57.94
82951;BME280;72737;53.332;6.514;2024-03-02T04:14:23;99873.78;;;13.97;58.29
82951;BME280;72737;53.332;6.514;2024-03-02T04:16:49;99871.50;;;13.91;58.08
82951;BME280;72737;53.332;6.514;2024-03-02T04:19:14;99868.78;;;13.91;58.39
82951;BME280;72737;53.332;6.514;2024-03-02T04:21:40;99867.47;;;13.88;58.52
82951;BME280;72737;53.332;6.514;2024-03-02T04:24:05;99869.41;;;13.88;58.40
82951;BME280;72737;53.332;6.514;2024-03-02T04:26:31;99882.56;;;13.86;58.02
82951;BME280;72737;53.332;6.514;2024-03-02T04:28:56;99877.41;;;13.84;58.30
82951;BME280;72737;53.332;6.514;2024-03-02T04:31:21;99880.47;;;13.83;58.64
82951;BME280;72737;53.332;6.514;2024-03-02T04:33:47;99881.75;;;13.85;58.30
82951;BME280;72737;53.332;6.514;2024-03-02T04:36:13;99876.31;;;13.85;58.43
82951;BME280;72737;53.332;6.514;2024-03-02T04:38:39;99882.44;;;13.91;57.83
82951;BME280;72737;53.332;6.514;2024-03-02T04:41:05;99888.41;;;13.93;57.91
82951;BME280;72737;53.332;6.514;2024-03-02T04:43:33;99887.06;;;13.82;58.41
82951;BME280;72737;53.332;6.514;2024-03-02T04:45:59;99896.59;;;13.93;58.05
82951;BME280;72737;53.332;6.514;2024-03-02T04:48:25;99899.47;;;13.88;57.81
82951;BME280;72737;53.332;6.514;2024-03-02T04:50:50;99907.31;;;13.89;58.46
82951;BME280;72737;53.332;6.514;2024-03-02T04:53:16;99914.09;;;13.92;58.15
82951;BME280;72737;53.332;6.514;2024-03-02T04:55:41;99907.00;;;13.91;57.52
82951;BME280;72737;53.332;6.514;2024-03-02T04:58:08;99908.09;;;13.81;58.69
82951;BME280;72737;53.332;6.514;2024-03-02T05:00:34;99914.22;;;13.87;58.33
82951;BME280;72737;53.332;6.514;2024-03-02T05:02:59;99910.19;;;13.84;58.24
82951;BME280;72737;53.332;6.514;2024-03-02T05:05:24;99908.44;;;13.88;58.41
82951;BME280;72737;53.332;6.514;2024-03-02T05:07:50;99920.03;;;13.94;57.78
82951;BME280;72737;53.332;6.514;2024-03-02T05:10:16;99915.84;;;13.88;58.20
82951;BME280;72737;53.332;6.514;2024-03-02T05:12:41;99916.97;;;13.87;57.92
82951;BME280;72737;53.332;6.514;2024-03-02T05:15:11;99922.06;;;13.80;57.97
82951;BME280;72737;53.332;6.514;2024-03-02T05:17:40;99918.56;;;13.88;57.82
82951;BME280;72737;53.332;6.514;2024-03-02T05:20:07;99930.25;;;13.80;58.40
82951;BME280;72737;53.332;6.514;2024-03-02T05:22:33;99927.06;;;13.86;57.71
82951;BME280;72737;53.332;6.514;2024-03-02T05:25:00;99928.19;;;13.85;58.46
82951;BME280;72737;53.332;6.514;2024-03-02T05:27:26;99925.91;;;13.79;58.18
82951;BME280;72737;53.332;6.514;2024-03-02T05:29:52;99939.25;;;13.80;58.28
82951;BME280;72737;53.332;6.514;2024-03-02T05:32:17;99942.47;;;13.82;58.54
82951;BME280;72737;53.332;6.514;2024-03-02T05:34:42;99944.94;;;13.92;57.76
82951;BME280;72737;53.332;6.514;2024-03-02T05:37:08;99941.72;;;13.90;58.12
82951;BME280;72737;53.332;6.514;2024-03-02T05:39:33;99952.13;;;13.88;57.80
82951;BME280;72737;53.332;6.514;2024-03-02T05:41:59;99950.66;;;13.82;57.76
82951;BME280;72737;53.332;6.514;2024-03-02T05:44:24;99951.16;;;13.84;58.06
82951;BME280;72737;53.332;6.514;2024-03-02T05:46:50;99946.38;;;13.90;58.22
82951;BME280;72737;53.332;6.514;2024-03-02T05:49:15;99956.00;;;13.87;57.84
82951;BME280;72737;53.332;6.514;2024-03-02T05:51:41;99958.06;;;13.82;58.15
82951;BME280;72737;53.332;6.514;2024-03-02T05:54:07;99964.50;;;13.86;58.04
82951;BME280;72737;53.332;6.514;2024-03-02T05:56:33;99968.72;;;13.92;58.22
82951;BME280;72737;53.332;6.514;2024-03-02T05:58:59;99973.19;;;13.88;57.83
82951;BME280;72737;53.332;6.514;2024-03-02T06:01:41;99973.19;;;13.88;58.26
82951;BME280;72737;53.332;6.514;2024-03-02T06:04:08;99979.41;;;13.80;58.32
82951;BME280;72737;53.332;6.514;2024-03-02T06:06:35;99979.91;;;13.82;58.14
82951;BME280;72737;53.332;6.514;2024-03-02T06:09:04;99989.59;;;13.88;57.55
82951;BME280;72737;53.332;6.514;2024-03-02T06:11:39;99992.31;;;13.88;58.16
82951;BME280;72737;53.332;6.514;2024-03-02T06:14:07;99994.53;;;13.86;58.16
82951;BME280;72737;53.332;6.514;2024-03-02T06:16:35;100003.97;;;13.80;58.32
82951;BME280;72737;53.332;6.514;2024-03-02T06:19:01;99999.75;;;13.73;58.16
82951;BME280;72737;53.332;6.514;2024-03-02T06:21:27;100009.31;;;13.85;58.15
82951;BME280;72737;53.332;6.514;2024-03-02T06:23:53;100009.81;;;13.87;58.03
82951;BME280;72737;53.332;6.514;2024-03-02T06:26:19;100013.66;;;13.86;58.10
82951;BME280;72737;53.332;6.514;2024-03-02T06:28:45;100010.28;;;13.89;58.13
82951;BME280;72737;53.332;6.514;2024-03-02T06:31:11;100018.50;;;13.89;57.56
82951;BME280;72737;53.332;6.514;2024-03-02T06:33:36;100019.94;;;13.86;58.17
82951;BME280;72737;53.332;6.514;2024-03-02T06:36:02;100021.97;;;13.81;58.49
82951;BME280;72737;53.332;6.514;2024-03-02T06:38:28;100029.66;;;13.79;58.53
82951;BME280;72737;53.332;6.514;2024-03-02T06:40:53;100030.84;;;13.86;58.01
82951;BME280;72737;53.332;6.514;2024-03-02T06:43:20;100039.72;;;13.92;58.24
82951;BME280;72737;53.332;6.514;2024-03-02T06:45:50;100039.22;;;13.90;58.12
82951;BME280;72737;53.332;6.514;2024-03-02T06:48:15;100036.66;;;13.93;57.66
82951;BME280;72737;53.332;6.514;2024-03-02T06:50:46;100047.41;;;13.90;58.20
82951;BME280;72737;53.332;6.514;2024-03-02T06:53:11;100045.00;;;13.88;57.83
82951;BME280;72737;53.332;6.514;2024-03-02T06:55:37;100046.94;;;13.88;58.35
82951;BME280;72737;53.332;6.514;2024-03-02T06:58:02;100048.06;;;13.87;58.51
82951;BME280;72737;53.332;6.514;2024-03-02T07:00:28;100051.09;;;13.85;58.37
82951;BME280;72737;53.332;6.514;2024-03-02T07:02:54;100045.19;;;13.92;58.15
82951;BME280;72737;53.332;6.514;2024-03-02T07:05:19;100040.84;;;13.91;57.79
82951;BME280;72737;53.332;6.514;2024-03-02T07:07:46;100059.66;;;13.92;57.59
82951;BME280;72737;53.332;6.514;2024-03-02T07:10:11;100063.00;;;13.89;57.72
82951;BME280;72737;53.332;6.514;2024-03-02T07:12:37;100061.31;;;13.80;58.28
82951;BME280;72737;53.332;6.514;2024-03-02T07:15:03;100068.59;;;13.84;58.47
82951;BME280;72737;53.332;6.514;2024-03-02T07:17:32;100066.66;;;13.85;58.31
82951;BME280;72737;53.332;6.514;2024-03-02T07:19:58;100073.19;;;13.75;58.80
82951;BME280;72737;53.332;6.514;2024-03-02T07:22:23;100071.00;;;13.86;58.58
82951;BME280;72737;53.332;6.514;2024-03-02T07:24:50;100073.22;;;13.84;58.02
82951;BME280;72737;53.332;6.514;2024-03-02T07:27:17;100070.31;;;13.80;58.62
82951;BME280;72737;53.332;6.514;2024-03-02T07:29:43;100076.66;;;13.89;58.51
82951;BME280;72737;53.332;6.514;2024-03-02T07:32:09;100074.38;;;13.83;58.56
82951;BME280;72737;53.332;6.514;2024-03-02T07:34:36;100082.56;;;13.83;58.75
82951;BME280;72737;53.332;6.514;2024-03-02T07:37:05;100086.78;;;13.89;58.14
82951;BME280;72737;53.332;6.514;2024-03-02T07:39:31;100090.94;;;13.86;58.54
82951;BME280;72737;53.332;6.514;2024-03-02T07:41:56;100092.91;;;13.94;57.76
82951;BME280;72737;53.332;6.514;2024-03-02T07:44:22;100095.09;;;13.84;58.53
82951;BME280;72737;53.332;6.514;2024-03-02T07:46:48;100101.47;;;13.79;58.46
82951;BME280;72737;53.332;6.514;2024-03-02T07:49:17;100104.28;;;13.88;58.17
82951;BME280;72737;53.332;6.514;2024-03-02T07:51:44;100117.84;;;13.93;58.47
82951;BME280;72737;53.332;6.514;2024-03-02T07:54:10;100111.59;;;13.79;58.35
82951;BME280;72737;53.332;6.514;2024-03-02T07:56:35;100109.88;;;13.83;58.92
82951;BME280;72737;53.332;6.514;2024-03-02T07:59:02;100108.63;;;13.89;58.55
82951;BME280;72737;53.332;6.514;2024-03-02T08:01:31;100111.34;;;13.89;58.32
82951;BME280;72737;53.332;6.514;2024-03-02T08:03:58;100118.44;;;13.90;58.48
82951;BME280;72737;53.332;6.514;2024-03-02T08:06:26;100116.44;;;13.82;58.78
82951;BME280;72737;53.332;6.514;2024-03-02T08:08:59;100131.59;;;13.88;58.13
82951;BME280;72737;53.332;6.514;2024-03-02T08:11:27;100131.41;;;13.84;58.42
82951;BME280;72737;53.332;6.514;2024-03-02T08:13:52;100129.47;;;13.85;58.12
82951;BME280;72737;53.332;6.514;2024-03-02T08:16:20;100129.94;;;13.78;58.37
82951;BME280;72737;53.332;6.514;2024-03-02T08:18:47;100129.19;;;13.86;58.74
82951;BME280;72737;53.332;6.514;2024-03-02T08:21:14;100121.78;;;13.87;58.55
82951;BME280;72737;53.332;6.514;2024-03-02T08:23:40;100136.44;;;13.91;58.29
82951;BME280;72737;53.332;6.514;2024-03-02T08:26:07;100131.41;;;13.84;58.20
82951;BME280;72737;53.332;6.514;2024-03-02T08:28:32;100133.19;;;13.89;58.38
82951;BME280;72737;53.332;6.514;2024-03-02T08:30:58;100133.84;;;13.86;58.63
82951;BME280;72737;53.332;6.514;2024-03-02T08:33:24;100136.56;;;13.86;58.14
82951;BME280;72737;53.332;6.514;2024-03-02T08:35:50;100131.59;;;13.88;58.15
82951;BME280;72737;53.332;6.514;2024-03-02T08:38:16;100143.19;;;13.93;57.94
82951;BME280;72737;53.332;6.514;2024-03-02T08:40:42;100147.38;;;13.91;58.33
82951;BME280;72737;53.332;6.514;2024-03-02T08:43:07;100152.44;;;13.84;58.58
82951;BME280;72737;53.332;6.514;2024-03-02T08:45:33;100153.47;;;13.88;58.55
82951;BME280;72737;53.332;6.514;2024-03-02T08:47:59;100148.88;;;13.97;58.01
82951;BME280;72737;53.332;6.514;2024-03-02T08:50:26;100157.53;;;13.99;58.08
82951;BME280;72737;53.332;6.514;2024-03-02T08:52:51;100154.81;;;13.99;58.33
82951;BME280;72737;53.332;6.514;2024-03-02T08:55:17;100161.41;;;13.98;57.90
82951;BME280;72737;53.332;6.514;2024-03-02T08:57:43;100159.59;;;13.93;58.56
82951;BME280;72737;53.332;6.514;2024-03-02T09:00:09;100172.03;;;13.99;57.72
82951;BME280;72737;53.332;6.514;2024-03-02T09:02:35;100171.22;;;13.99;57.97
82951;BME280;72737;53.332;6.514;2024-03-02T09:05:01;100169.50;;;14.03;58.04
82951;BME280;72737;53.332;6.514;2024-03-02T09:07:26;100175.25;;;14.01;58.20
82951;BME280;72737;53.332;6.514;2024-03-02T09:09:52;100171.22;;;13.99;57.90
82951;BME280;72737;53.332;6.514;2024-03-02T09:12:18;100171.59;;;14.06;58.00
82951;BME280;72737;53.332;6.514;2024-03-02T09:14:44;100166.13;;;14.06;58.20
82951;BME280;72737;53.332;6.514;2024-03-02T09:17:10;100162.78;;;14.09;58.38
82951;BME280;72737;53.332;6.514;2024-03-02T09:19:36;100163.59;;;14.09;58.18
82951;BME280;72737;53.332;6.514;2024-03-02T09:22:02;100171.47;;;14.11;58.06
82951;BME280;72737;53.332;6.514;2024-03-02T09:24:28;100164.41;;;14.10;57.66
82951;BME280;72737;53.332;6.514;2024-03-02T09:26:54;100164.09;;;14.11;58.27
82951;BME280;72737;53.332;6.514;2024-03-02T09:29:19;100159.75;;;14.10;58.52
82951;BME280;72737;53.332;6.514;2024-03-02T09:31:46;100164.50;;;14.05;58.68
82951;BME280;72737;53.332;6.514;2024-03-02T09:34:12;100171.31;;;14.07;58.26
82951;BME280;72737;53.332;6.514;2024-03-02T09:36:39;100176.31;;;14.14;57.99
82951;BME280;72737;53.332;6.514;2024-03-02T09:39:04;100177.47;;;14.13;58.34
82951;BME280;72737;53.332;6.514;2024-03-02T09:41:30;100176.44;;;14.09;58.03
82951;BME280;72737;53.332;6.514;2024-03-02T09:43:55;100177.56;;;14.08;58.60
82951;BME280;72737;53.332;6.514;2024-03-02T09:46:23;100177.25;;;14.09;58.56
82951;BME280;72737;53.332;6.514;2024-03-02T09:48:48;100175.44;;;14.05;58.37
82951;BME280;72737;53.332;6.514;2024-03-02T09:51:15;100178.19;;;14.05;58.22
82951;BME280;72737;53.332;6.514;2024-03-02T09:53:41;100170.78;;;14.05;58.19
82951;BME280;72737;53.332;6.514;2024-03-02T09:56:08;100182.53;;;14.06;58.78
82951;BME280;72737;53.332;6.514;2024-03-02T09:58:33;100181.09;;;14.08;58.82
82951;BME280;72737;53.332;6.514;2024-03-02T10:00:58;100177.06;;;14.06;58.06
82951;BME280;72737;53.332;6.514;2024-03-02T10:03:24;100176.44;;;14.09;58.16
82951;BME280;72737;53.332;6.514;2024-03-02T10:05:50;100171.47;;;14.11;58.01
82951;BME280;72737;53.332;6.514;2024-03-02T10:08:15;100179.84;;;14.14;58.40
82951;BME280;72737;53.332;6.514;2024-03-02T10:10:41;100172.59;;;14.10;58.61
82951;BME280;72737;53.332;6.514;2024-03-02T10:13:12;100171.78;;;14.09;58.32
82951;BME280;72737;53.332;6.514;2024-03-02T10:15:39;100186.75;;;14.12;58.66
82951;BME280;72737;53.332;6.514;2024-03-02T10:18:11;100180.66;;;14.15;58.25
82951;BME280;72737;53.332;6.514;2024-03-02T10:20:42;100183.28;;;14.20;58.64
82951;BME280;72737;53.332;6.514;2024-03-02T10:23:15;100177.50;;;14.22;58.60
82951;BME280;72737;53.332;6.514;2024-03-02T10:25:44;100184.09;;;14.21;57.99
82951;BME280;72737;53.332;6.514;2024-03-02T10:28:10;100181.06;;;14.22;58.43
82951;BME280;72737;53.332;6.514;2024-03-02T10:30:36;100178.44;;;14.17;58.42
82951;BME280;72737;53.332;6.514;2024-03-02T10:33:02;100173.97;;;14.21;58.25
82951;BME280;72737;53.332;6.514;2024-03-02T10:35:28;100169.31;;;14.22;58.47
82951;BME280;72737;53.332;6.514;2024-03-02T10:37:59;100165.13;;;14.24;58.11
82951;BME280;72737;53.332;6.514;2024-03-02T10:40:26;100170.00;;;14.27;58.65
82951;BME280;72737;53.332;6.514;2024-03-02T10:42:52;100171.13;;;14.26;58.27
82951;BME280;72737;53.332;6.514;2024-03-02T10:45:20;100170.47;;;14.29;58.27
82951;BME280;72737;53.332;6.514;2024-03-02T10:47:47;100167.75;;;14.29;58.48
82951;BME280;72737;53.332;6.514;2024-03-02T10:50:13;100172.91;;;14.31;58.54
82951;BME280;72737;53.332;6.514;2024-03-02T10:52:39;100168.78;;;14.33;58.17
82951;BME280;72737;53.332;6.514;2024-03-02T10:55:06;100179.38;;;14.35;58.72
82951;BME280;72737;53.332;6.514;2024-03-02T10:57:45;100177.34;;;14.40;58.43
82951;BME280;72737;53.332;6.514;2024-03-02T11:00:16;100175.13;;;14.42;58.32
82951;BME280;72737;53.332;6.514;2024-03-02T11:02:55;100177.84;;;14.42;58.33
82951;BME280;72737;53.332;6.514;2024-03-02T11:05:27;100179.16;;;14.45;58.05
82951;BME280;72737;53.332;6.514;2024-03-02T11:08:06;100172.06;;;14.44;58.24
82951;BME280;72737;53.332;6.514;2024-03-02T11:10:50;100170.66;;;14.46;58.34
82951;BME280;72737;53.332;6.514;2024-03-02T11:13:23;100167.09;;;14.46;58.09
82951;BME280;72737;53.332;6.514;2024-03-02T11:15:54;100174.50;;;14.45;58.45
82951;BME280;72737;53.332;6.514;2024-03-02T11:18:21;100167.09;;;14.46;58.34
82951;BME280;72737;53.332;6.514;2024-03-02T11:20:47;100162.00;;;14.53;58.01
82951;BME280;72737;53.332;6.514;2024-03-02T11:23:13;100172.63;;;14.54;58.64
82951;BME280;72737;53.332;6.514;2024-03-02T11:25:39;100176.50;;;14.53;58.69
82951;BME280;72737;53.332;6.514;2024-03-02T11:28:06;100165.22;;;14.55;58.49
82951;BME280;72737;53.332;6.514;2024-03-02T11:33:02;100165.44;;;14.58;58.37
82951;BME280;72737;53.332;6.514;2024-03-02T11:35:51;100156.41;;;14.58;58.65
82951;BME280;72737;53.332;6.514;2024-03-02T11:38:18;100170.56;;;14.60;58.52
82951;BME280;72737;53.332;6.514;2024-03-02T11:40:43;100151.28;;;14.65;58.44
82951;BME280;72737;53.332;6.514;2024-03-02T11:43:09;100151.63;;;14.64;58.09
82951;BME280;72737;53.332;6.514;2024-03-02T11:45:36;100166.88;;;14.65;58.53
82951;BME280;72737;53.332;6.514;2024-03-02T11:48:08;100152.59;;;14.68;58.17
82951;BME280;72737;53.332;6.514;2024-03-02T11:50:46;100156.31;;;14.72;58.01
82951;BME280;72737;53.332;6.514;2024-03-02T11:53:12;100158.88;;;14.68;58.47
82951;BME280;72737;53.332;6.514;2024-03-02T11:55:39;100163.41;;;14.73;58.25
82951;BME280;72737;53.332;6.514;2024-03-02T11:58:06;100162.78;;;14.76;58.15
82951;BME280;72737;53.332;6.514;2024-03-02T12:00:32;100148.78;;;14.77;58.06
82951;BME280;72737;53.332;6.514;2024-03-02T12:03:02;100150.56;;;14.82;58.03
82951;BME280;72737;53.332;6.514;2024-03-02T12:05:29;100149.25;;;14.79;57.97
82951;BME280;72737;53.332;6.514;2024-03-02T12:07:57;100149.47;;;14.83;58.56
82951;BME280;72737;53.332;6.514;2024-03-02T12:10:23;100143.34;;;14.86;58.32
82951;BME280;72737;53.332;6.514;2024-03-02T12:13:04;100143.03;;;14.87;58.63
82951;BME280;72737;53.332;6.514;2024-03-02T12:15:33;100147.06;;;14.90;58.29
82951;BME280;72737;53.332;6.514;2024-03-02T12:18:00;100141.59;;;14.90;58.35
82951;BME280;72737;53.332;6.514;2024-03-02T12:20:27;100148.84;;;14.94;58.50
82951;BME280;72737;53.332;6.514;2024-03-02T12:22:55;100142.25;;;14.95;58.06
82951;BME280;72737;53.332;6.514;2024-03-02T12:25:21;100148.41;;;15.01;57.83
82951;BME280;72737;53.332;6.514;2024-03-02T12:27:49;100143.44;;;15.03;58.03
82951;BME280;72737;53.332;6.514;2024-03-02T12:30:18;100145.53;;;15.06;58.33
82951;BME280;72737;53.332;6.514;2024-03-02T12:32:45;100158.53;;;15.00;58.12
82951;BME280;72737;53.332;6.514;2024-03-02T12:35:12;100149.38;;;15.05;58.38
82951;BME280;72737;53.332;6.514;2024-03-02T12:37:49;100156.63;;;15.10;57.77
82951;BME280;72737;53.332;6.514;2024-03-02T12:40:17;100157.44;;;15.10;57.89
82951;BME280;72737;53.332;6.514;2024-03-02T12:42:44;100154.91;;;15.14;57.85
82951;BME280;72737;53.332;6.514;2024-03-02T12:45:12;100153.75;;;15.15;57.93
82951;BME280;72737;53.332;6.514;2024-03-02T12:47:39;100161.97;;;15.15;58.03
82951;BME280;72737;53.332;6.514;2024-03-02T12:50:06;100155.53;;;15.19;58.06
82951;BME280;72737;53.332;6.514;2024-03-02T12:52:32;100163.13;;;15.22;58.28
82951;BME280;72737;53.332;6.514;2024-03-02T12:54:59;100168.31;;;15.24;57.76
82951;BME280;72737;53.332;6.514;2024-03-02T12:57:27;100164.13;;;15.26;58.18
82951;BME280;72737;53.332;6.514;2024-03-02T12:59:57;100164.13;;;15.26;57.82